sensor_id;sensor_type;location;lat;lon;timestamp;temperature;humidity
34099;DHT22;20374;49.474;10.944;2024-03-23T00:53:17;9.80;99.90
34099;DHT22;20374;49.474;10.944;2024-03-23T00:55:43;9.60;99.90
34099;DHT22;20374;49.474;10.944;2024-03-23T00:58:09;9.50;99.90
34099;DHT22;20374;49.474;10.944;2024-03-23T01:00:35;9.40;99.90
34099;DHT22;20374;49.474;10.944;2024-03-23T01:03:01;9.40;99.90
34099;DHT22;20374;49.474;10.944;2024-03-23T01:05:27;9.30;99.90
34099;DHT22;20374;49.474;10.944;2024-03-23T01:07:53;9.20;99.90
34099;DHT22;20374;49.474;10.944;2024-03-23T01:10:19;9.20;99.90
34099;DHT22;20374;49.474;10.944;2024-03-23T01:12:45;9.00;99.90
34099;DHT22;20374;49.474;10.944;2024-03-23T01:15:10;9.00;99.90
34099;DHT22;20374;49.474;10.944;2024-03-23T01:17:36;9.10;99.90
34099;DHT22;20374;49.474;10.944;2024-03-23T01:20:02;9.10;99.90
34099;DHT22;20374;49.474;10.944;2024-03-23T01:22:28;9.10;99.90
34099;DHT22;20374;49.474;10.944;2024-03-23T01:24:54;9.10;99.90
34099;DHT22;20374;49.474;10.944;2024-03-23T01:27:20;9.20;99.90
34099;DHT22;20374;49.474;10.944;2024-03-23T01:29:46;9.10;99.90
34099;DHT22;20374;49.474;10.944;2024-03-23T01:32:12;9.00;99.90
34099;DHT22;20374;49.474;10.944;2024-03-23T01:34:37;8.90;99.90
34099;DHT22;20374;49.474;10.944;2024-03-23T01:37:03;8.80;99.90
34099;DHT22;20374;49.474;10.944;2024-03-23T01:39:30;8.80;99.90
34099;DHT22;20374;49.474;10.944;2024-03-23T01:41:56;8.80;99.90
34099;DHT22;20374;49.474;10.944;2024-03-23T01:44:22;8.80;99.90
34099;DHT22;20374;49.474;10.944;2024-03-23T01:46:48;8.90;99.90
34099;DHT22;20374;49.474;10.944;2024-03-23T01:49:14;8.90;99.90
34099;DHT22;20374;49.474;10.944;2024-03-23T01:51:41;9.00;99.90
34099;DHT22;20374;49.474;10.944;2024-03-23T01:54:08;9.10;99.90
34099;DHT22;20374;49.474;10.944;2024-03-23T01:56:35;9.30;99.90
34099;DHT22;20374;49.474;10.944;2024-03-23T01:59:07;9.40;99.90
34099;DHT22;20374;49.474;10.944;2024-03-23T02:01:36;9.50;99.90
34099;DHT22;20374;49.474;10.944;2024-03-23T02:04:02;9.70;99.90
34099;DHT22;20374;49.474;10.944;2024-03-23T02:06:28;9.70;99.90
34099;DHT22;20374;49.474;10.944;2024-03-23T02:08:54;9.80;99.90
34099;DHT22;20374;49.474;10.944;2024-03-23T02:11:20;9.80;99.90
34099;DHT22;20374;49.474;10.944;2024-03-23T02:13:46;9.90;99.90
34099;DHT22;20374;49.474;10.944;2024-03-23T02:16:12;10.00;99.90
34099;DHT22;20374;49.474;10.944;2024-03-23T02:18:39;10.10;99.90
34099;DHT22;20374;49.474;10.944;2024-03-23T02:21:05;10.10;99.90
34099;DHT22;20374;49.474;10.944;2024-03-23T02:23:31;10.20;99.90
34099;DHT22;20374;49.474;10.944;2024-03-23T02:25:57;10.30;99.90
34099;DHT22;20374;49.474;10.944;2024-03-23T02:28:23;10.30;99.90
34099;DHT22;20374;49.474;10.944;2024-03-23T02:30:49;10.30;99.90
34099;DHT22;20374;49.474;10.944;2024-03-23T02:33:16;10.30;99.90
34099;DHT22;20374;49.474;10.944;2024-03-23T02:35:43;10.30;99.90
34099;DHT22;20374;49.474;10.944;2024-03-23T02:38:09;10.40;99.90
34099;DHT22;20374;49.474;10.944;2024-03-23T02:40:35;10.40;99.90
34099;DHT22;20374;49.474;10.944;2024-03-23T02:43:03;10.40;99.90
34099;DHT22;20374;49.474;10.944;2024-03-23T02:45:29;10.40;99.90
34099;DHT22;20374;49.474;10.944;2024-03-23T02:47:55;10.50;99.90
34099;DHT22;20374;49.474;10.944;2024-03-23T02:50:22;10.50;99.90
34099;DHT22;20374;49.474;10.944;2024-03-23T02:52:48;10.60;99.90
34099;DHT22;20374;49.474;10.944;2024-03-23T02:55:15;10.60;99.90
34099;DHT22;20374;49.474;10.944;2024-03-23T02:57:41;10.60;99.90
34099;DHT22;20374;49.474;10.944;2024-03-23T03:00:07;10.60;99.90
34099;DHT22;20374;49.474;10.944;2024-03-23T03:02:34;10.70;99.90
34099;DHT22;20374;49.474;10.944;2024-03-23T03:05:00;10.70;99.90
34099;DHT22;20374;49.474;10.944;2024-03-23T03:07:26;10.80;99.90
34099;DHT22;20374;49.474;10.944;2024-03-23T03:09:52;10.80;99.90
34099;DHT22;20374;49.474;10.944;2024-03-23T03:12:18;10.90;99.90
34099;DHT22;20374;49.474;10.944;2024-03-23T03:14:43;10.90;99.90
34099;DHT22;20374;49.474;10.944;2024-03-23T03:17:09;10.90;99.90
34099;DHT22;20374;49.474;10.944;2024-03-23T03:19:35;11.00;99.90
34099;DHT22;20374;49.474;10.944;2024-03-23T03:22:01;11.00;99.90
34099;DHT22;20374;49.474;10.944;2024-03-23T03:24:27;11.00;99.90
34099;DHT22;20374;49.474;10.944;2024-03-23T03:26:53;11.00;99.90
34099;DHT22;20374;49.474;10.944;2024-03-23T03:29:18;11.00;99.90
34099;DHT22;20374;49.474;10.944;2024-03-23T03:31:45;11.00;99.90
34099;DHT22;20374;49.474;10.944;2024-03-23T03:34:10;10.90;99.90
34099;DHT22;20374;49.474;10.944;2024-03-23T03:36:36;10.90;99.90
34099;DHT22;20374;49.474;10.944;2024-03-23T03:39:02;10.80;99.90
34099;DHT22;20374;49.474;10.944;2024-03-23T03:41:30;10.90;99.90
34099;DHT22;20374;49.474;10.944;2024-03-23T03:43:57;10.80;99.90
34099;DHT22;20374;49.474;10.944;2024-03-23T03:46:27;10.80;99.90
34099;DHT22;20374;49.474;10.944;2024-03-23T03:48:54;10.80;99.90
34099;DHT22;20374;49.474;10.944;2024-03-23T03:51:20;10.80;99.90
34099;DHT22;20374;49.474;10.944;2024-03-23T03:53:46;10.80;99.90
34099;DHT22;20374;49.474;10.944;2024-03-23T03:56:12;10.70;99.90
34099;DHT22;20374;49.474;10.944;2024-03-23T03:58:38;10.70;99.90
34099;DHT22;20374;49.474;10.944;2024-03-23T04:01:05;10.60;99.90
34099;DHT22;20374;49.474;10.944;2024-03-23T04:03:31;10.50;99.90
34099;DHT22;20374;49.474;10.944;2024-03-23T04:05:57;10.40;99.90
34099;DHT22;20374;49.474;10.944;2024-03-23T04:08:24;10.40;99.90
34099;DHT22;20374;49.474;10.944;2024-03-23T04:10:50;10.30;99.90
34099;DHT22;20374;49.474;10.944;2024-03-23T04:13:16;10.20;99.90
34099;DHT22;20374;49.474;10.944;2024-03-23T04:15:42;10.10;99.90
34099;DHT22;20374;49.474;10.944;2024-03-23T04:18:08;10.00;99.90
34099;DHT22;20374;49.474;10.944;2024-03-23T04:20:34;9.90;99.90
34099;DHT22;20374;49.474;10.944;2024-03-23T04:23:01;9.90;99.90
34099;DHT22;20374;49.474;10.944;2024-03-23T04:25:27;9.90;99.90
34099;DHT22;20374;49.474;10.944;2024-03-23T04:27:53;9.90;99.90
34099;DHT22;20374;49.474;10.944;2024-03-23T04:30:18;9.90;99.90
34099;DHT22;20374;49.474;10.944;2024-03-23T04:32:45;10.00;99.90
34099;DHT22;20374;49.474;10.944;2024-03-23T04:35:11;10.00;99.90
34099;DHT22;20374;49.474;10.944;2024-03-23T04:37:37;10.00;99.90
34099;DHT22;20374;49.474;10.944;2024-03-23T04:40:04;10.00;99.90
34099;DHT22;20374;49.474;10.944;2024-03-23T04:42:30;10.00;99.90
34099;DHT22;20374;49.474;10.944;2024-03-23T04:44:57;10.00;99.90
34099;DHT22;20374;49.474;10.944;2024-03-23T04:47:22;10.10;99.90
34099;DHT22;20374;49.474;10.944;2024-03-23T04:49:48;10.10;99.90
34099;DHT22;20374;49.474;10.944;2024-03-23T04:52:16;10.10;99.90
34099;DHT22;20374;49.474;10.944;2024-03-23T04:54:42;10.10;99.90
34099;DHT22;20374;49.474;10.944;2024-03-23T04:57:08;10.20;99.90
34099;DHT22;20374;49.474;10.944;2024-03-23T04:59:34;10.30;99.90
34099;DHT22;20374;49.474;10.944;2024-03-23T05:02:00;10.30;99.90
34099;DHT22;20374;49.474;10.944;2024-03-23T05:04:26;10.30;99.90
34099;DHT22;20374;49.474;10.944;2024-03-23T05:06:52;10.30;99.90
34099;DHT22;20374;49.474;10.944;2024-03-23T05:09:18;10.20;99.90
34099;DHT22;20374;49.474;10.944;2024-03-23T05:11:44;10.30;99.90
34099;DHT22;20374;49.474;10.944;2024-03-23T05:14:15;10.20;99.90
34099;DHT22;20374;49.474;10.944;2024-03-23T05:16:41;10.20;99.90
34099;DHT22;20374;49.474;10.944;2024-03-23T05:19:07;10.30;99.90
34099;DHT22;20374;49.474;10.944;2024-03-23T05:21:33;10.40;99.90
34099;DHT22;20374;49.474;10.944;2024-03-23T05:23:59;10.50;99.90
34099;DHT22;20374;49.474;10.944;2024-03-23T05:26:25;10.60;99.90
34099;DHT22;20374;49.474;10.944;2024-03-23T05:28:51;10.70;99.90
34099;DHT22;20374;49.474;10.944;2024-03-23T05:31:28;10.70;99.90
34099;DHT22;20374;49.474;10.944;2024-03-23T05:33:54;10.60;99.90
34099;DHT22;20374;49.474;10.944;2024-03-23T05:36:20;10.60;99.90
34099;DHT22;20374;49.474;10.944;2024-03-23T05:38:46;10.50;99.90
34099;DHT22;20374;49.474;10.944;2024-03-23T05:41:12;10.50;99.90
34099;DHT22;20374;49.474;10.944;2024-03-23T05:43:38;10.50;99.90
34099;DHT22;20374;49.474;10.944;2024-03-23T05:46:04;10.60;99.90
34099;DHT22;20374;49.474;10.944;2024-03-23T05:48:31;10.70;99.90
34099;DHT22;20374;49.474;10.944;2024-03-23T05:50:57;10.80;99.90
34099;DHT22;20374;49.474;10.944;2024-03-23T05:53:24;10.80;99.90
34099;DHT22;20374;49.474;10.944;2024-03-23T05:55:51;10.90;99.90
34099;DHT22;20374;49.474;10.944;2024-03-23T05:58:19;10.90;99.90
34099;DHT22;20374;49.474;10.944;2024-03-23T06:00:46;10.80;99.90
34099;DHT22;20374;49.474;10.944;2024-03-23T06:03:12;10.70;99.90
34099;DHT22;20374;49.474;10.944;2024-03-23T06:05:38;10.50;99.90
34099;DHT22;20374;49.474;10.944;2024-03-23T06:08:04;10.30;99.90
34099;DHT22;20374;49.474;10.944;2024-03-23T06:10:30;10.20;99.90
34099;DHT22;20374;49.474;10.944;2024-03-23T06:12:57;10.10;99.90
34099;DHT22;20374;49.474;10.944;2024-03-23T06:15:25;10.00;99.90
34099;DHT22;20374;49.474;10.944;2024-03-23T06:17:50;9.90;99.90
34099;DHT22;20374;49.474;10.944;2024-03-23T06:20:16;9.80;99.90
34099;DHT22;20374;49.474;10.944;2024-03-23T06:22:42;9.80;99.90
34099;DHT22;20374;49.474;10.944;2024-03-23T06:25:08;9.70;99.90
34099;DHT22;20374;49.474;10.944;2024-03-23T06:27:34;9.70;99.90
34099;DHT22;20374;49.474;10.944;2024-03-23T06:30:00;9.70;99.90
34099;DHT22;20374;49.474;10.944;2024-03-23T06:32:27;9.70;99.90
34099;DHT22;20374;49.474;10.944;2024-03-23T06:34:54;9.70;99.90
34099;DHT22;20374;49.474;10.944;2024-03-23T06:37:20;9.70;99.90
34099;DHT22;20374;49.474;10.944;2024-03-23T06:39:49;9.70;99.90
34099;DHT22;20374;49.474;10.944;2024-03-23T06:42:15;9.70;99.90
34099;DHT22;20374;49.474;10.944;2024-03-23T06:44:41;9.70;99.90
34099;DHT22;20374;49.474;10.944;2024-03-23T06:47:07;9.80;99.90
34099;DHT22;20374;49.474;10.944;2024-03-23T06:49:32;9.80;99.90
34099;DHT22;20374;49.474;10.944;2024-03-23T06:51:58;9.80;99.90
34099;DHT22;20374;49.474;10.944;2024-03-23T06:54:24;9.80;99.90
34099;DHT22;20374;49.474;10.944;2024-03-23T06:56:50;9.90;99.90
34099;DHT22;20374;49.474;10.944;2024-03-23T06:59:16;10.00;99.90
34099;DHT22;20374;49.474;10.944;2024-03-23T07:01:42;10.00;99.90
34099;DHT22;20374;49.474;10.944;2024-03-23T07:04:08;10.00;99.90
34099;DHT22;20374;49.474;10.944;2024-03-23T07:06:34;10.10;99.90
34099;DHT22;20374;49.474;10.944;2024-03-23T07:09:00;10.10;99.90
34099;DHT22;20374;49.474;10.944;2024-03-23T07:11:26;10.20;99.90
34099;DHT22;20374;49.474;10.944;2024-03-23T07:13:53;10.20;99.90
34099;DHT22;20374;49.474;10.944;2024-03-23T07:16:22;10.10;99.90
34099;DHT22;20374;49.474;10.944;2024-03-23T07:18:50;10.10;99.90
34099;DHT22;20374;49.474;10.944;2024-03-23T07:21:16;10.10;99.90
34099;DHT22;20374;49.474;10.944;2024-03-23T07:23:42;10.10;99.90
34099;DHT22;20374;49.474;10.944;2024-03-23T07:26:11;10.00;99.90
34099;DHT22;20374;49.474;10.944;2024-03-23T07:28:37;10.00;99.90
34099;DHT22;20374;49.474;10.944;2024-03-23T07:31:05;9.90;99.90
34099;DHT22;20374;49.474;10.944;2024-03-23T07:33:31;9.90;99.90
34099;DHT22;20374;49.474;10.944;2024-03-23T07:35:58;9.90;99.90
34099;DHT22;20374;49.474;10.944;2024-03-23T07:38:26;9.90;99.90
34099;DHT22;20374;49.474;10.944;2024-03-23T07:41:01;9.90;99.90
34099;DHT22;20374;49.474;10.944;2024-03-23T07:43:28;9.90;99.90
34099;DHT22;20374;49.474;10.944;2024-03-23T07:45:54;10.00;99.90
34099;DHT22;20374;49.474;10.944;2024-03-23T07:48:23;10.00;99.90
34099;DHT22;20374;49.474;10.944;2024-03-23T07:53:29;10.10;99.90
34099;DHT22;20374;49.474;10.944;2024-03-23T07:56:06;10.20;99.90
34099;DHT22;20374;49.474;10.944;2024-03-23T07:58:32;10.30;99.90
34099;DHT22;20374;49.474;10.944;2024-03-23T08:01:24;10.30;99.90
34099;DHT22;20374;49.474;10.944;2024-03-23T08:03:50;10.50;99.90
34099;DHT22;20374;49.474;10.944;2024-03-23T08:06:18;10.70;99.90
34099;DHT22;20374;49.474;10.944;2024-03-23T08:08:46;10.90;99.90
34099;DHT22;20374;49.474;10.944;2024-03-23T08:11:12;10.80;99.90
34099;DHT22;20374;49.474;10.944;2024-03-23T08:13:42;10.50;99.90
34099;DHT22;20374;49.474;10.944;2024-03-23T08:16:08;9.90;99.90
34099;DHT22;20374;49.474;10.944;2024-03-23T08:18:34;9.50;99.90
34099;DHT22;20374;49.474;10.944;2024-03-23T08:21:05;9.10;99.90
34099;DHT22;20374;49.474;10.944;2024-03-23T08:23:33;8.70;99.90
34099;DHT22;20374;49.474;10.944;2024-03-23T08:26:05;8.40;99.90
34099;DHT22;20374;49.474;10.944;2024-03-23T08:28:31;8.20;99.90
34099;DHT22;20374;49.474;10.944;2024-03-23T08:31:01;8.00;99.90
34099;DHT22;20374;49.474;10.944;2024-03-23T08:33:28;7.80;99.90
34099;DHT22;20374;49.474;10.944;2024-03-23T08:36:01;7.70;99.90
34099;DHT22;20374;49.474;10.944;2024-03-23T08:38:28;7.90;99.90
34099;DHT22;20374;49.474;10.944;2024-03-23T08:41:12;8.10;99.90
34099;DHT22;20374;49.474;10.944;2024-03-23T08:43:41;8.00;99.90
34099;DHT22;20374;49.474;10.944;2024-03-23T08:46:11;8.20;99.90
34099;DHT22;20374;49.474;10.944;2024-03-23T08:48:44;8.40;99.90
34099;DHT22;20374;49.474;10.944;2024-03-23T08:51:12;8.30;99.90
34099;DHT22;20374;49.474;10.944;2024-03-23T08:53:39;8.20;99.90
34099;DHT22;20374;49.474;10.944;2024-03-23T08:56:06;8.10;99.90
34099;DHT22;20374;49.474;10.944;2024-03-23T08:58:33;8.10;99.90
34099;DHT22;20374;49.474;10.944;2024-03-23T09:01:09;8.40;99.90
34099;DHT22;20374;49.474;10.944;2024-03-23T09:03:36;8.40;99.90
34099;DHT22;20374;49.474;10.944;2024-03-23T09:06:09;8.30;99.90
34099;DHT22;20374;49.474;10.944;2024-03-23T09:08:35;8.50;99.90
34099;DHT22;20374;49.474;10.944;2024-03-23T09:11:06;8.50;99.90
34099;DHT22;20374;49.474;10.944;2024-03-23T09:13:36;8.50;99.90
34099;DHT22;20374;49.474;10.944;2024-03-23T09:16:02;8.50;99.90
34099;DHT22;20374;49.474;10.944;2024-03-23T09:18:31;8.60;99.90
34099;DHT22;20374;49.474;10.944;2024-03-23T09:20:57;8.70;99.90
34099;DHT22;20374;49.474;10.944;2024-03-23T09:23:23;8.70;99.90
34099;DHT22;20374;49.474;10.944;2024-03-23T09:25:48;8.80;99.90
34099;DHT22;20374;49.474;10.944;2024-03-23T09:28:14;8.80;99.90
34099;DHT22;20374;49.474;10.944;2024-03-23T09:30:40;8.50;99.90
34099;DHT22;20374;49.474;10.944;2024-03-23T09:33:10;8.30;99.90
34099;DHT22;20374;49.474;10.944;2024-03-23T09:35:43;8.10;99.90
34099;DHT22;20374;49.474;10.944;2024-03-23T09:38:10;8.00;99.90
34099;DHT22;20374;49.474;10.944;2024-03-23T09:40:43;8.00;99.90
34099;DHT22;20374;49.474;10.944;2024-03-23T09:43:09;8.20;99.90
34099;DHT22;20374;49.474;10.944;2024-03-23T09:45:39;8.30;99.90
34099;DHT22;20374;49.474;10.944;2024-03-23T09:48:08;8.50;99.90
34099;DHT22;20374;49.474;10.944;2024-03-23T09:50:39;8.70;99.90
34099;DHT22;20374;49.474;10.944;2024-03-23T09:53:13;8.90;99.90
34099;DHT22;20374;49.474;10.944;2024-03-23T09:55:44;9.20;99.90
34099;DHT22;20374;49.474;10.944;2024-03-23T09:58:17;9.10;99.90
34099;DHT22;20374;49.474;10.944;2024-03-23T10:00:43;8.90;99.90
34099;DHT22;20374;49.474;10.944;2024-03-23T10:03:09;8.70;99.90
34099;DHT22;20374;49.474;10.944;2024-03-23T10:05:37;8.70;99.90
34099;DHT22;20374;49.474;10.944;2024-03-23T10:10:42;8.60;99.90
34099;DHT22;20374;49.474;10.944;2024-03-23T10:13:08;8.50;99.90
34099;DHT22;20374;49.474;10.944;2024-03-23T10:15:35;8.40;99.90
34099;DHT22;20374;49.474;10.944;2024-03-23T10:18:20;8.40;99.90
34099;DHT22;20374;49.474;10.944;2024-03-23T10:21:06;8.70;99.90
34099;DHT22;20374;49.474;10.944;2024-03-23T20:12:07;3.20;99.90
34099;DHT22;20374;49.474;10.944;2024-03-23T20:14:33;3.10;99.90
34099;DHT22;20374;49.474;10.944;2024-03-23T20:16:59;3.00;99.90
34099;DHT22;20374;49.474;10.944;2024-03-23T20:19:25;3.00;99.90
34099;DHT22;20374;49.474;10.944;2024-03-23T20:21:51;3.00;99.90
34099;DHT22;20374;49.474;10.944;2024-03-23T20:24:17;3.00;99.90
34099;DHT22;20374;49.474;10.944;2024-03-23T20:26:43;3.00;99.90
34099;DHT22;20374;49.474;10.944;2024-03-23T20:29:09;2.90;99.90
34099;DHT22;20374;49.474;10.944;2024-03-23T20:31:35;2.90;99.90
34099;DHT22;20374;49.474;10.944;2024-03-23T20:34:02;2.90;99.90
34099;DHT22;20374;49.474;10.944;2024-03-23T20:36:28;2.90;99.90
34099;DHT22;20374;49.474;10.944;2024-03-23T20:38:56;2.90;99.90
34099;DHT22;20374;49.474;10.944;2024-03-23T20:41:21;2.90;99.90
34099;DHT22;20374;49.474;10.944;2024-03-23T20:43:50;2.90;99.90
34099;DHT22;20374;49.474;10.944;2024-03-23T20:46:16;2.90;99.90
34099;DHT22;20374;49.474;10.944;2024-03-23T20:48:42;2.90;99.90
34099;DHT22;20374;49.474;10.944;2024-03-23T20:51:13;2.90;99.90
34099;DHT22;20374;49.474;10.944;2024-03-23T20:53:39;2.90;99.90
34099;DHT22;20374;49.474;10.944;2024-03-23T20:56:05;2.80;99.90
34099;DHT22;20374;49.474;10.944;2024-03-23T20:58:34;2.80;99.90
34099;DHT22;20374;49.474;10.944;2024-03-23T21:01:05;2.80;99.90
34099;DHT22;20374;49.474;10.944;2024-03-23T21:03:32;2.80;99.90
34099;DHT22;20374;49.474;10.944;2024-03-23T21:06:01;2.80;99.90
34099;DHT22;20374;49.474;10.944;2024-03-23T21:08:35;2.80;99.90
34099;DHT22;20374;49.474;10.944;2024-03-23T21:11:01;2.90;99.90
34099;DHT22;20374;49.474;10.944;2024-03-23T21:13:30;2.90;99.90
34099;DHT22;20374;49.474;10.944;2024-03-23T21:15:59;2.90;99.90
34099;DHT22;20374;49.474;10.944;2024-03-23T21:18:26;2.90;99.90
34099;DHT22;20374;49.474;10.944;2024-03-23T21:20:56;3.00;99.90
34099;DHT22;20374;49.474;10.944;2024-03-23T21:23:30;2.90;99.90
34099;DHT22;20374;49.474;10.944;2024-03-23T21:25:59;2.90;99.90
34099;DHT22;20374;49.474;10.944;2024-03-23T21:28:25;2.90;99.90
34099;DHT22;20374;49.474;10.944;2024-03-23T21:30:51;2.90;99.90
34099;DHT22;20374;49.474;10.944;2024-03-23T21:33:17;2.90;99.90
34099;DHT22;20374;49.474;10.944;2024-03-23T21:35:43;2.90;99.90
34099;DHT22;20374;49.474;10.944;2024-03-23T21:38:09;2.90;99.90
34099;DHT22;20374;49.474;10.944;2024-03-23T21:40:34;2.90;99.90
34099;DHT22;20374;49.474;10.944;2024-03-23T21:43:00;2.90;99.90
34099;DHT22;20374;49.474;10.944;2024-03-23T21:45:26;2.80;99.90
34099;DHT22;20374;49.474;10.944;2024-03-23T21:47:52;2.80;99.90
34099;DHT22;20374;49.474;10.944;2024-03-23T21:50:18;2.80;99.90
34099;DHT22;20374;49.474;10.944;2024-03-23T21:52:44;2.80;99.90
34099;DHT22;20374;49.474;10.944;2024-03-23T21:55:10;2.80;99.90
34099;DHT22;20374;49.474;10.944;2024-03-23T21:57:36;2.90;99.90
34099;DHT22;20374;49.474;10.944;2024-03-23T22:00:05;2.90;99.90
34099;DHT22;20374;49.474;10.944;2024-03-23T22:02:38;2.90;99.90
34099;DHT22;20374;49.474;10.944;2024-03-23T22:05:04;2.90;99.90
34099;DHT22;20374;49.474;10.944;2024-03-23T22:07:30;2.90;99.90
34099;DHT22;20374;49.474;10.944;2024-03-23T22:09:57;2.90;99.90
34099;DHT22;20374;49.474;10.944;2024-03-23T22:12:23;2.90;99.90
34099;DHT22;20374;49.474;10.944;2024-03-23T22:14:51;2.90;99.90
34099;DHT22;20374;49.474;10.944;2024-03-23T22:17:17;2.90;99.90
34099;DHT22;20374;49.474;10.944;2024-03-23T22:19:46;2.90;99.90
34099;DHT22;20374;49.474;10.944;2024-03-23T22:22:12;2.90;99.90
34099;DHT22;20374;49.474;10.944;2024-03-23T22:24:38;3.00;99.90
34099;DHT22;20374;49.474;10.944;2024-03-23T22:27:04;3.00;99.90
34099;DHT22;20374;49.474;10.944;2024-03-23T22:29:30;3.10;99.90
34099;DHT22;20374;49.474;10.944;2024-03-23T22:31:55;3.10;99.90
34099;DHT22;20374;49.474;10.944;2024-03-23T22:34:21;3.10;99.90
34099;DHT22;20374;49.474;10.944;2024-03-23T22:36:47;3.10;99.90
34099;DHT22;20374;49.474;10.944;2024-03-23T22:39:13;3.10;99.90
34099;DHT22;20374;49.474;10.944;2024-03-23T22:41:39;3.20;99.90
34099;DHT22;20374;49.474;10.944;2024-03-23T22:44:05;3.10;99.90
34099;DHT22;20374;49.474;10.944;2024-03-23T22:46:31;3.20;99.90
34099;DHT22;20374;49.474;10.944;2024-03-23T22:48:57;3.20;99.90
34099;DHT22;20374;49.474;10.944;2024-03-23T22:51:23;3.20;99.90
34099;DHT22;20374;49.474;10.944;2024-03-23T22:53:49;3.30;99.90
34099;DHT22;20374;49.474;10.944;2024-03-23T22:56:15;3.30;99.90
34099;DHT22;20374;49.474;10.944;2024-03-23T22:58:42;3.30;99.90
34099;DHT22;20374;49.474;10.944;2024-03-23T23:01:08;3.40;99.90
34099;DHT22;20374;49.474;10.944;2024-03-23T23:03:34;3.40;99.90
34099;DHT22;20374;49.474;10.944;2024-03-23T23:06:04;3.40;99.90
34099;DHT22;20374;49.474;10.944;2024-03-23T23:08:31;3.50;99.90
34099;DHT22;20374;49.474;10.944;2024-03-23T23:10:58;3.50;99.90
34099;DHT22;20374;49.474;10.944;2024-03-23T23:13:24;3.50;99.90
34099;DHT22;20374;49.474;10.944;2024-03-23T23:15:50;3.50;99.90
34099;DHT22;20374;49.474;10.944;2024-03-23T23:18:19;3.50;99.90
34099;DHT22;20374;49.474;10.944;2024-03-23T23:20:45;3.50;99.90
34099;DHT22;20374;49.474;10.944;2024-03-23T23:23:13;3.50;99.90
34099;DHT22;20374;49.474;10.944;2024-03-23T23:25:39;3.60;99.90
34099;DHT22;20374;49.474;10.944;2024-03-23T23:28:05;3.40;99.90
34099;DHT22;20374;49.474;10.944;2024-03-23T23:30:31;3.40;99.90
34099;DHT22;20374;49.474;10.944;2024-03-23T23:32:57;3.50;99.90
34099;DHT22;20374;49.474;10.944;2024-03-23T23:35:23;3.40;99.90
34099;DHT22;20374;49.474;10.944;2024-03-23T23:37:52;3.50;99.90
34099;DHT22;20374;49.474;10.944;2024-03-23T23:40:20;3.50;99.90
34099;DHT22;20374;49.474;10.944;2024-03-23T23:42:46;3.50;99.90
34099;DHT22;20374;49.474;10.944;2024-03-23T23:45:12;3.50;99.90
34099;DHT22;20374;49.474;10.944;2024-03-23T23:47:38;3.50;99.90
34099;DHT22;20374;49.474;10.944;2024-03-23T23:50:05;3.50;99.90
34099;DHT22;20374;49.474;10.944;2024-03-23T23:52:31;3.50;99.90
34099;DHT22;20374;49.474;10.944;2024-03-23T23:54:57;3.50;99.90
34099;DHT22;20374;49.474;10.944;2024-03-23T23:57:23;3.50;99.90
34099;DHT22;20374;49.474;10.944;2024-03-23T23:59:49;3.40;99.90
